sensor_id;sensor_type;location;lat;lon;timestamp;P1;durP1;ratioP1;P2;durP2;ratioP2
53479;SDS011;56133;51.012;-1.648;2022-11-11T00:00:21;17.92;;;1.90;;
53479;SDS011;56133;51.012;-1.648;2022-11-11T00:02:47;11.45;;;1.60;;
53479;SDS011;56133;51.012;-1.648;2022-11-11T00:05:13;16.63;;;1.98;;
53479;SDS011;56133;51.012;-1.648;2022-11-11T00:07:40;10.18;;;1.48;;
53479;SDS011;56133;51.012;-1.648;2022-11-11T00:10:06;17.50;;;2.35;;
53479;SDS011;56133;51.012;-1.648;2022-11-11T00:12:32;20.85;;;2.05;;
53479;SDS011;56133;51.012;-1.648;2022-11-11T00:14:58;20.75;;;1.92;;
53479;SDS011;56133;51.012;-1.648;2022-11-11T00:17:23;14.73;;;1.90;;
53479;SDS011;56133;51.012;-1.648;2022-11-11T00:20:08;15.30;;;1.95;;
53479;SDS011;56133;51.012;-1.648;2022-11-11T00:22:53;15.25;;;2.45;;
53479;SDS011;56133;51.012;-1.648;2022-11-11T00:25:37;15.85;;;2.05;;
53479;SDS011;56133;51.012;-1.648;2022-11-11T00:28:02;24.98;;;2.67;;
53479;SDS011;56133;51.012;-1.648;2022-11-11T00:30:28;16.48;;;2.20;;
53479;SDS011;56133;51.012;-1.648;2022-11-11T00:32:54;23.88;;;2.95;;
53479;SDS011;56133;51.012;-1.648;2022-11-11T00:35:20;12.35;;;2.03;;
53479;SDS011;56133;51.012;-1.648;2022-11-11T00:38:07;19.95;;;2.15;;
53479;SDS011;56133;51.012;-1.648;2022-11-11T00:40:35;12.85;;;2.28;;
53479;SDS011;56133;51.012;-1.648;2022-11-11T00:43:01;17.73;;;2.58;;
53479;SDS011;56133;51.012;-1.648;2022-11-11T00:45:26;12.23;;;2.22;;
53479;SDS011;56133;51.012;-1.648;2022-11-11T00:47:52;12.80;;;1.80;;
53479;SDS011;56133;51.012;-1.648;2022-11-11T00:50:37;19.20;;;2.65;;
53479;SDS011;56133;51.012;-1.648;2022-11-11T00:53:22;14.02;;;2.30;;
53479;SDS011;56133;51.012;-1.648;2022-11-11T00:55:50;22.45;;;3.08;;
53479;SDS011;56133;51.012;-1.648;2022-11-11T00:58:16;14.63;;;2.63;;
53479;SDS011;56133;51.012;-1.648;2022-11-11T01:00:42;20.08;;;2.42;;
53479;SDS011;56133;51.012;-1.648;2022-11-11T01:03:08;20.63;;;3.03;;
53479;SDS011;56133;51.012;-1.648;2022-11-11T01:05:35;15.95;;;2.65;;
53479;SDS011;56133;51.012;-1.648;2022-11-11T01:08:01;21.75;;;2.60;;
53479;SDS011;56133;51.012;-1.648;2022-11-11T01:10:27;16.92;;;3.05;;
53479;SDS011;56133;51.012;-1.648;2022-11-11T01:13:19;17.17;;;2.58;;
53479;SDS011;56133;51.012;-1.648;2022-11-11T01:15:49;27.60;;;3.00;;
53479;SDS011;56133;51.012;-1.648;2022-11-11T01:18:16;33.67;;;3.42;;
53479;SDS011;56133;51.012;-1.648;2022-11-11T01:20:45;17.48;;;2.53;;
53479;SDS011;56133;51.012;-1.648;2022-11-11T01:23:11;21.27;;;3.17;;
53479;SDS011;56133;51.012;-1.648;2022-11-11T01:25:38;20.63;;;3.13;;
53479;SDS011;56133;51.012;-1.648;2022-11-11T01:28:05;28.60;;;2.92;;
53479;SDS011;56133;51.012;-1.648;2022-11-11T01:30:33;18.80;;;3.72;;
53479;SDS011;56133;51.012;-1.648;2022-11-11T01:33:00;14.73;;;1.95;;
53479;SDS011;56133;51.012;-1.648;2022-11-11T01:35:26;18.92;;;2.72;;
53479;SDS011;56133;51.012;-1.648;2022-11-11T01:37:51;19.48;;;2.72;;
53479;SDS011;56133;51.012;-1.648;2022-11-11T01:40:17;15.98;;;2.50;;
53479;SDS011;56133;51.012;-1.648;2022-11-11T01:42:49;20.83;;;2.50;;
53479;SDS011;56133;51.012;-1.648;2022-11-11T01:51:35;20.90;;;2.58;;
53479;SDS011;56133;51.012;-1.648;2022-11-11T01:54:05;13.75;;;2.20;;
53479;SDS011;56133;51.012;-1.648;2022-11-11T01:56:39;28.50;;;2.80;;
53479;SDS011;56133;51.012;-1.648;2022-11-11T01:59:09;15.60;;;2.60;;
53479;SDS011;56133;51.012;-1.648;2022-11-11T02:01:37;23.30;;;3.13;;
53479;SDS011;56133;51.012;-1.648;2022-11-11T02:04:03;25.25;;;3.10;;
53479;SDS011;56133;51.012;-1.648;2022-11-11T02:06:49;20.33;;;2.83;;
53479;SDS011;56133;51.012;-1.648;2022-11-11T02:09:17;18.92;;;2.97;;
53479;SDS011;56133;51.012;-1.648;2022-11-11T02:11:45;17.55;;;2.25;;
53479;SDS011;56133;51.012;-1.648;2022-11-11T02:14:29;13.85;;;2.45;;
53479;SDS011;56133;51.012;-1.648;2022-11-11T02:17:01;25.02;;;2.63;;
53479;SDS011;56133;51.012;-1.648;2022-11-11T02:19:48;17.20;;;2.53;;
53479;SDS011;56133;51.012;-1.648;2022-11-11T02:22:28;19.27;;;2.60;;
53479;SDS011;56133;51.012;-1.648;2022-11-11T02:25:03;14.68;;;3.05;;
53479;SDS011;56133;51.012;-1.648;2022-11-11T02:27:31;20.55;;;3.05;;
53479;SDS011;56133;51.012;-1.648;2022-11-11T02:30:01;19.27;;;2.80;;
53479;SDS011;56133;51.012;-1.648;2022-11-11T02:32:29;20.10;;;2.88;;
53479;SDS011;56133;51.012;-1.648;2022-11-11T02:34:54;13.40;;;2.45;;
53479;SDS011;56133;51.012;-1.648;2022-11-11T02:37:23;28.92;;;3.45;;
53479;SDS011;56133;51.012;-1.648;2022-11-11T02:39:51;16.98;;;2.53;;
53479;SDS011;56133;51.012;-1.648;2022-11-11T02:42:22;15.18;;;2.22;;
53479;SDS011;56133;51.012;-1.648;2022-11-11T02:44:48;16.52;;;2.58;;
53479;SDS011;56133;51.012;-1.648;2022-11-11T02:47:14;20.50;;;3.10;;
53479;SDS011;56133;51.012;-1.648;2022-11-11T02:49:40;15.52;;;2.60;;
53479;SDS011;56133;51.012;-1.648;2022-11-11T02:52:05;26.30;;;3.10;;
53479;SDS011;56133;51.012;-1.648;2022-11-11T02:54:31;16.45;;;2.55;;
53479;SDS011;56133;51.012;-1.648;2022-11-11T02:56:56;17.55;;;2.30;;
53479;SDS011;56133;51.012;-1.648;2022-11-11T02:59:31;19.50;;;3.03;;
53479;SDS011;56133;51.012;-1.648;2022-11-11T03:01:56;26.55;;;2.88;;
53479;SDS011;56133;51.012;-1.648;2022-11-11T03:04:22;15.75;;;2.33;;
53479;SDS011;56133;51.012;-1.648;2022-11-11T03:06:47;15.35;;;2.28;;
53479;SDS011;56133;51.012;-1.648;2022-11-11T03:09:13;14.75;;;2.47;;
53479;SDS011;56133;51.012;-1.648;2022-11-11T03:11:38;14.88;;;2.00;;
53479;SDS011;56133;51.012;-1.648;2022-11-11T03:14:05;18.80;;;2.70;;
53479;SDS011;56133;51.012;-1.648;2022-11-11T03:16:30;15.93;;;2.70;;
53479;SDS011;56133;51.012;-1.648;2022-11-11T03:19:14;18.75;;;2.75;;
53479;SDS011;56133;51.012;-1.648;2022-11-11T03:21:40;24.27;;;2.60;;
53479;SDS011;56133;51.012;-1.648;2022-11-11T03:24:05;22.25;;;2.67;;
53479;SDS011;56133;51.012;-1.648;2022-11-11T03:26:31;17.85;;;3.38;;
53479;SDS011;56133;51.012;-1.648;2022-11-11T03:28:57;18.30;;;2.70;;
53479;SDS011;56133;51.012;-1.648;2022-11-11T03:31:22;15.32;;;2.30;;
53479;SDS011;56133;51.012;-1.648;2022-11-11T03:33:48;18.15;;;2.63;;
53479;SDS011;56133;51.012;-1.648;2022-11-11T03:36:13;18.23;;;2.95;;
53479;SDS011;56133;51.012;-1.648;2022-11-11T03:38:39;13.27;;;2.45;;
53479;SDS011;56133;51.012;-1.648;2022-11-11T03:41:04;15.43;;;2.42;;
53479;SDS011;56133;51.012;-1.648;2022-11-11T03:43:31;16.08;;;2.70;;
53479;SDS011;56133;51.012;-1.648;2022-11-11T03:45:59;12.35;;;2.28;;
53479;SDS011;56133;51.012;-1.648;2022-11-11T03:48:27;16.73;;;2.88;;
53479;SDS011;56133;51.012;-1.648;2022-11-11T03:50:54;11.63;;;2.25;;
53479;SDS011;56133;51.012;-1.648;2022-11-11T03:53:20;14.77;;;2.03;;
53479;SDS011;56133;51.012;-1.648;2022-11-11T03:55:46;18.95;;;2.75;;
53479;SDS011;56133;51.012;-1.648;2022-11-11T03:58:12;44.60;;;4.30;;
53479;SDS011;56133;51.012;-1.648;2022-11-11T04:00:39;20.92;;;2.55;;
53479;SDS011;56133;51.012;-1.648;2022-11-11T04:05:59;13.80;;;2.55;;
53479;SDS011;56133;51.012;-1.648;2022-11-11T04:08:44;19.08;;;2.97;;
53479;SDS011;56133;51.012;-1.648;2022-11-11T04:11:29;18.27;;;2.67;;
53479;SDS011;56133;51.012;-1.648;2022-11-11T04:14:10;21.15;;;2.83;;
53479;SDS011;56133;51.012;-1.648;2022-11-11T04:16:55;26.42;;;2.90;;
53479;SDS011;56133;51.012;-1.648;2022-11-11T04:19:21;23.77;;;3.08;;
53479;SDS011;56133;51.012;-1.648;2022-11-11T04:22:05;19.98;;;3.08;;
53479;SDS011;56133;51.012;-1.648;2022-11-11T04:24:31;23.05;;;2.83;;
53479;SDS011;56133;51.012;-1.648;2022-11-11T04:27:15;22.23;;;3.05;;
53479;SDS011;56133;51.012;-1.648;2022-11-11T04:29:42;27.92;;;3.20;;
53479;SDS011;56133;51.012;-1.648;2022-11-11T04:32:09;15.18;;;2.40;;
53479;SDS011;56133;51.012;-1.648;2022-11-11T04:34:56;23.75;;;3.45;;
53479;SDS011;56133;51.012;-1.648;2022-11-11T04:37:23;23.50;;;3.78;;
53479;SDS011;56133;51.012;-1.648;2022-11-11T04:39:50;22.83;;;3.47;;
53479;SDS011;56133;51.012;-1.648;2022-11-11T04:42:35;24.73;;;3.13;;
53479;SDS011;56133;51.012;-1.648;2022-11-11T04:45:02;26.02;;;3.55;;
53479;SDS011;56133;51.012;-1.648;2022-11-11T04:50:25;23.10;;;3.15;;
53479;SDS011;56133;51.012;-1.648;2022-11-11T04:52:53;48.38;;;5.22;;
53479;SDS011;56133;51.012;-1.648;2022-11-11T04:55:19;20.70;;;2.53;;
53479;SDS011;56133;51.012;-1.648;2022-11-11T04:58:03;16.63;;;2.95;;
53479;SDS011;56133;51.012;-1.648;2022-11-11T05:00:29;20.85;;;3.08;;
53479;SDS011;56133;51.012;-1.648;2022-11-11T05:02:55;22.67;;;2.75;;
53479;SDS011;56133;51.012;-1.648;2022-11-11T05:08:32;20.30;;;3.20;;
53479;SDS011;56133;51.012;-1.648;2022-11-11T05:11:17;17.75;;;2.58;;
53479;SDS011;56133;51.012;-1.648;2022-11-11T05:13:43;19.45;;;3.13;;
53479;SDS011;56133;51.012;-1.648;2022-11-11T05:16:28;70.25;;;5.25;;
53479;SDS011;56133;51.012;-1.648;2022-11-11T05:19:14;25.17;;;3.50;;
53479;SDS011;56133;51.012;-1.648;2022-11-11T05:22:41;22.85;;;3.47;;
53479;SDS011;56133;51.012;-1.648;2022-11-11T05:24:47;18.98;;;2.80;;
53479;SDS011;56133;51.012;-1.648;2022-11-11T05:27:32;23.20;;;3.20;;
53479;SDS011;56133;51.012;-1.648;2022-11-11T05:29:57;19.98;;;3.63;;
53479;SDS011;56133;51.012;-1.648;2022-11-11T05:32:23;15.68;;;2.45;;
53479;SDS011;56133;51.012;-1.648;2022-11-11T05:34:48;21.67;;;2.67;;
53479;SDS011;56133;51.012;-1.648;2022-11-11T05:37:14;24.83;;;3.40;;
53479;SDS011;56133;51.012;-1.648;2022-11-11T05:39:40;22.17;;;3.20;;
53479;SDS011;56133;51.012;-1.648;2022-11-11T05:42:07;26.27;;;2.83;;
53479;SDS011;56133;51.012;-1.648;2022-11-11T05:44:33;13.07;;;2.55;;
53479;SDS011;56133;51.012;-1.648;2022-11-11T05:46:58;14.70;;;2.72;;
53479;SDS011;56133;51.012;-1.648;2022-11-11T05:49:24;20.70;;;2.83;;
53479;SDS011;56133;51.012;-1.648;2022-11-11T05:51:49;15.40;;;2.78;;
53479;SDS011;56133;51.012;-1.648;2022-11-11T05:54:15;22.20;;;2.60;;
53479;SDS011;56133;51.012;-1.648;2022-11-11T05:56:44;17.27;;;2.33;;
53479;SDS011;56133;51.012;-1.648;2022-11-11T05:59:10;27.25;;;3.88;;
53479;SDS011;56133;51.012;-1.648;2022-11-11T06:01:36;28.98;;;3.58;;
53479;SDS011;56133;51.012;-1.648;2022-11-11T06:04:02;16.45;;;2.70;;
53479;SDS011;56133;51.012;-1.648;2022-11-11T06:06:28;13.55;;;2.85;;
53479;SDS011;56133;51.012;-1.648;2022-11-11T06:08:55;16.33;;;2.75;;
53479;SDS011;56133;51.012;-1.648;2022-11-11T06:11:20;14.35;;;2.95;;
53479;SDS011;56133;51.012;-1.648;2022-11-11T06:13:46;15.73;;;2.55;;
53479;SDS011;56133;51.012;-1.648;2022-11-11T06:16:12;14.55;;;2.92;;
53479;SDS011;56133;51.012;-1.648;2022-11-11T06:18:38;14.25;;;3.05;;
53479;SDS011;56133;51.012;-1.648;2022-11-11T06:21:04;16.58;;;2.78;;
53479;SDS011;56133;51.012;-1.648;2022-11-11T06:23:30;15.13;;;3.15;;
53479;SDS011;56133;51.012;-1.648;2022-11-11T06:25:55;19.15;;;3.35;;
53479;SDS011;56133;51.012;-1.648;2022-11-11T06:28:41;21.95;;;3.75;;
53479;SDS011;56133;51.012;-1.648;2022-11-11T06:31:07;18.90;;;3.50;;
53479;SDS011;56133;51.012;-1.648;2022-11-11T06:33:33;17.95;;;2.88;;
53479;SDS011;56133;51.012;-1.648;2022-11-11T06:35:59;20.83;;;2.85;;
53479;SDS011;56133;51.012;-1.648;2022-11-11T06:38:25;18.98;;;3.90;;
53479;SDS011;56133;51.012;-1.648;2022-11-11T06:40:51;15.93;;;3.22;;
53479;SDS011;56133;51.012;-1.648;2022-11-11T06:43:16;22.25;;;3.65;;
53479;SDS011;56133;51.012;-1.648;2022-11-11T06:45:42;16.55;;;4.10;;
53479;SDS011;56133;51.012;-1.648;2022-11-11T06:48:07;22.23;;;3.85;;
53479;SDS011;56133;51.012;-1.648;2022-11-11T06:50:33;24.88;;;3.80;;
53479;SDS011;56133;51.012;-1.648;2022-11-11T06:53:06;17.80;;;3.35;;
53479;SDS011;56133;51.012;-1.648;2022-11-11T06:55:34;23.73;;;4.57;;
53479;SDS011;56133;51.012;-1.648;2022-11-11T06:58:07;16.65;;;3.58;;
53479;SDS011;56133;51.012;-1.648;2022-11-11T07:00:36;15.35;;;4.05;;
53479;SDS011;56133;51.012;-1.648;2022-11-11T07:03:03;39.03;;;4.72;;
53479;SDS011;56133;51.012;-1.648;2022-11-11T07:05:29;15.15;;;3.42;;
53479;SDS011;56133;51.012;-1.648;2022-11-11T07:07:54;24.17;;;3.92;;
53479;SDS011;56133;51.012;-1.648;2022-11-11T07:10:20;14.73;;;3.40;;
53479;SDS011;56133;51.012;-1.648;2022-11-11T07:12:46;25.58;;;4.10;;
53479;SDS011;56133;51.012;-1.648;2022-11-11T07:15:11;28.13;;;4.80;;
53479;SDS011;56133;51.012;-1.648;2022-11-11T07:17:37;17.38;;;3.80;;
53479;SDS011;56133;51.012;-1.648;2022-11-11T07:20:02;33.25;;;4.03;;
53479;SDS011;56133;51.012;-1.648;2022-11-11T07:22:28;48.85;;;5.63;;
53479;SDS011;56133;51.012;-1.648;2022-11-11T07:24:54;19.27;;;4.45;;
53479;SDS011;56133;51.012;-1.648;2022-11-11T07:27:19;19.05;;;3.58;;
53479;SDS011;56133;51.012;-1.648;2022-11-11T07:29:45;16.92;;;3.83;;
53479;SDS011;56133;51.012;-1.648;2022-11-11T07:32:12;21.15;;;3.83;;
53479;SDS011;56133;51.012;-1.648;2022-11-11T07:34:38;31.65;;;4.45;;
53479;SDS011;56133;51.012;-1.648;2022-11-11T07:37:04;21.52;;;4.18;;
53479;SDS011;56133;51.012;-1.648;2022-11-11T07:39:29;23.23;;;4.38;;
53479;SDS011;56133;51.012;-1.648;2022-11-11T07:41:55;30.20;;;4.53;;
53479;SDS011;56133;51.012;-1.648;2022-11-11T07:44:20;28.38;;;4.50;;
53479;SDS011;56133;51.012;-1.648;2022-11-11T07:46:46;21.58;;;4.78;;
53479;SDS011;56133;51.012;-1.648;2022-11-11T07:49:11;26.98;;;3.63;;
53479;SDS011;56133;51.012;-1.648;2022-11-11T07:51:36;17.48;;;3.92;;
53479;SDS011;56133;51.012;-1.648;2022-11-11T07:54:02;26.83;;;4.05;;
53479;SDS011;56133;51.012;-1.648;2022-11-11T07:56:28;23.85;;;3.95;;
53479;SDS011;56133;51.012;-1.648;2022-11-11T07:58:53;27.75;;;5.07;;
53479;SDS011;56133;51.012;-1.648;2022-11-11T08:01:18;21.48;;;3.58;;
53479;SDS011;56133;51.012;-1.648;2022-11-11T08:03:44;18.65;;;3.70;;
53479;SDS011;56133;51.012;-1.648;2022-11-11T08:06:18;76.10;;;6.85;;
53479;SDS011;56133;51.012;-1.648;2022-11-11T08:08:45;26.13;;;4.63;;
53479;SDS011;56133;51.012;-1.648;2022-11-11T08:11:11;19.35;;;4.03;;
53479;SDS011;56133;51.012;-1.648;2022-11-11T08:13:37;14.20;;;3.45;;
53479;SDS011;56133;51.012;-1.648;2022-11-11T08:16:14;20.98;;;3.80;;
53479;SDS011;56133;51.012;-1.648;2022-11-11T08:18:40;16.55;;;3.78;;
53479;SDS011;56133;51.012;-1.648;2022-11-11T08:21:06;24.38;;;4.28;;
53479;SDS011;56133;51.012;-1.648;2022-11-11T08:23:33;16.88;;;3.60;;
53479;SDS011;56133;51.012;-1.648;2022-11-11T08:28:24;50.83;;;5.50;;
53479;SDS011;56133;51.012;-1.648;2022-11-11T08:30:50;19.60;;;4.05;;
53479;SDS011;56133;51.012;-1.648;2022-11-11T08:33:16;17.85;;;3.67;;
53479;SDS011;56133;51.012;-1.648;2022-11-11T08:35:42;17.63;;;3.88;;
53479;SDS011;56133;51.012;-1.648;2022-11-11T08:38:07;25.25;;;4.13;;
53479;SDS011;56133;51.012;-1.648;2022-11-11T08:40:33;13.38;;;3.40;;
53479;SDS011;56133;51.012;-1.648;2022-11-11T08:42:58;28.38;;;4.20;;
53479;SDS011;56133;51.012;-1.648;2022-11-11T08:45:24;16.60;;;4.03;;
53479;SDS011;56133;51.012;-1.648;2022-11-11T08:47:50;22.67;;;3.50;;
53479;SDS011;56133;51.012;-1.648;2022-11-11T08:50:16;26.10;;;5.28;;
53479;SDS011;56133;51.012;-1.648;2022-11-11T08:52:46;27.58;;;4.88;;
53479;SDS011;56133;51.012;-1.648;2022-11-11T08:55:12;33.35;;;5.25;;
53479;SDS011;56133;51.012;-1.648;2022-11-11T08:57:38;21.70;;;4.40;;
53479;SDS011;56133;51.012;-1.648;2022-11-11T09:00:03;23.77;;;5.30;;
53479;SDS011;56133;51.012;-1.648;2022-11-11T09:02:30;28.92;;;5.05;;
53479;SDS011;56133;51.012;-1.648;2022-11-11T09:04:56;32.97;;;5.55;;
53479;SDS011;56133;51.012;-1.648;2022-11-11T09:07:21;21.67;;;5.10;;
53479;SDS011;56133;51.012;-1.648;2022-11-11T09:09:47;19.60;;;5.18;;
53479;SDS011;56133;51.012;-1.648;2022-11-11T09:12:12;33.38;;;5.07;;
53479;SDS011;56133;51.012;-1.648;2022-11-11T09:14:38;24.15;;;5.03;;
53479;SDS011;56133;51.012;-1.648;2022-11-11T09:17:04;23.50;;;5.35;;
53479;SDS011;56133;51.012;-1.648;2022-11-11T09:19:30;20.23;;;5.03;;
53479;SDS011;56133;51.012;-1.648;2022-11-11T09:21:56;27.85;;;5.53;;
53479;SDS011;56133;51.012;-1.648;2022-11-11T09:24:21;22.73;;;5.97;;
53479;SDS011;56133;51.012;-1.648;2022-11-11T09:26:47;18.63;;;5.30;;
53479;SDS011;56133;51.012;-1.648;2022-11-11T09:29:13;23.35;;;5.68;;
53479;SDS011;56133;51.012;-1.648;2022-11-11T09:31:39;31.77;;;6.00;;
53479;SDS011;56133;51.012;-1.648;2022-11-11T09:34:05;29.38;;;6.03;;
53479;SDS011;56133;51.012;-1.648;2022-11-11T09:36:33;21.38;;;5.75;;
53479;SDS011;56133;51.012;-1.648;2022-11-11T09:38:59;23.98;;;5.93;;
53479;SDS011;56133;51.012;-1.648;2022-11-11T09:44:02;21.70;;;5.68;;
53479;SDS011;56133;51.012;-1.648;2022-11-11T09:46:35;23.60;;;5.65;;
53479;SDS011;56133;51.012;-1.648;2022-11-11T09:54:36;19.17;;;5.63;;
53479;SDS011;56133;51.012;-1.648;2022-11-11T09:57:04;21.75;;;5.35;;
53479;SDS011;56133;51.012;-1.648;2022-11-11T09:59:46;30.23;;;6.07;;
53479;SDS011;56133;51.012;-1.648;2022-11-11T10:02:20;21.58;;;5.10;;
53479;SDS011;56133;51.012;-1.648;2022-11-11T10:05:01;28.85;;;6.70;;
53479;SDS011;56133;51.012;-1.648;2022-11-11T10:13:02;21.80;;;5.80;;
53479;SDS011;56133;51.012;-1.648;2022-11-11T10:15:37;27.38;;;6.25;;
53479;SDS011;56133;51.012;-1.648;2022-11-11T10:18:40;26.50;;;5.93;;
53479;SDS011;56133;51.012;-1.648;2022-11-11T10:21:22;19.98;;;5.75;;
53479;SDS011;56133;51.012;-1.648;2022-11-11T10:23:59;18.52;;;5.03;;
53479;SDS011;56133;51.012;-1.648;2022-11-11T10:29:18;18.95;;;5.18;;
53479;SDS011;56133;51.012;-1.648;2022-11-11T10:31:45;18.15;;;5.18;;
53479;SDS011;56133;51.012;-1.648;2022-11-11T10:36:47;16.33;;;4.97;;
53479;SDS011;56133;51.012;-1.648;2022-11-11T10:42:03;22.83;;;6.05;;
53479;SDS011;56133;51.012;-1.648;2022-11-11T10:44:32;29.20;;;6.38;;
53479;SDS011;56133;51.012;-1.648;2022-11-11T10:47:25;22.23;;;5.32;;
53479;SDS011;56133;51.012;-1.648;2022-11-11T10:52:38;30.80;;;5.50;;
53479;SDS011;56133;51.012;-1.648;2022-11-11T10:55:11;22.02;;;5.43;;
53479;SDS011;56133;51.012;-1.648;2022-11-11T10:57:53;23.40;;;6.05;;
53479;SDS011;56133;51.012;-1.648;2022-11-11T11:00:25;44.72;;;6.90;;
53479;SDS011;56133;51.012;-1.648;2022-11-11T11:02:58;34.60;;;6.88;;
53479;SDS011;56133;51.012;-1.648;2022-11-11T11:05:49;22.08;;;5.05;;
53479;SDS011;56133;51.012;-1.648;2022-11-11T11:08:21;24.70;;;5.07;;
53479;SDS011;56133;51.012;-1.648;2022-11-11T11:10:55;35.88;;;6.18;;
53479;SDS011;56133;51.012;-1.648;2022-11-11T11:16:13;18.58;;;4.40;;
53479;SDS011;56133;51.012;-1.648;2022-11-11T11:18:42;22.83;;;4.68;;
53479;SDS011;56133;51.012;-1.648;2022-11-11T11:21:08;19.70;;;4.20;;
53479;SDS011;56133;51.012;-1.648;2022-11-11T11:23:35;15.02;;;4.15;;
53479;SDS011;56133;51.012;-1.648;2022-11-11T11:26:02;21.58;;;4.60;;
53479;SDS011;56133;51.012;-1.648;2022-11-11T11:28:29;16.85;;;4.45;;
53479;SDS011;56133;51.012;-1.648;2022-11-11T11:31:02;18.65;;;4.25;;
53479;SDS011;56133;51.012;-1.648;2022-11-11T11:36:26;21.90;;;4.53;;
53479;SDS011;56133;51.012;-1.648;2022-11-11T11:38:52;35.20;;;5.88;;
53479;SDS011;56133;51.012;-1.648;2022-11-11T11:41:17;19.23;;;4.53;;
53479;SDS011;56133;51.012;-1.648;2022-11-11T11:44:00;44.50;;;6.03;;
53479;SDS011;56133;51.012;-1.648;2022-11-11T11:46:27;35.45;;;5.70;;
53479;SDS011;56133;51.012;-1.648;2022-11-11T11:56:51;13.07;;;3.97;;
53479;SDS011;56133;51.012;-1.648;2022-11-11T12:13:11;22.65;;;3.92;;
53479;SDS011;56133;51.012;-1.648;2022-11-11T12:21:38;14.68;;;3.58;;
53479;SDS011;56133;51.012;-1.648;2022-11-11T12:30:03;10.93;;;3.63;;
53479;SDS011;56133;51.012;-1.648;2022-11-11T12:32:48;21.90;;;4.72;;
53479;SDS011;56133;51.012;-1.648;2022-11-11T12:35:56;13.60;;;3.67;;
53479;SDS011;56133;51.012;-1.648;2022-11-11T12:54:53;20.15;;;4.35;;
53479;SDS011;56133;51.012;-1.648;2022-11-11T13:00:15;17.30;;;3.70;;
53479;SDS011;56133;51.012;-1.648;2022-11-11T13:05:39;22.85;;;4.25;;
53479;SDS011;56133;51.012;-1.648;2022-11-11T13:18:49;16.17;;;4.05;;
53479;SDS011;56133;51.012;-1.648;2022-11-11T13:21:44;23.65;;;4.25;;
53479;SDS011;56133;51.012;-1.648;2022-11-11T13:24:38;17.35;;;3.75;;
53479;SDS011;56133;51.012;-1.648;2022-11-11T13:27:05;24.52;;;4.10;;
53479;SDS011;56133;51.012;-1.648;2022-11-11T13:32:08;16.90;;;3.10;;
53479;SDS011;56133;51.012;-1.648;2022-11-11T13:34:37;16.30;;;2.92;;
53479;SDS011;56133;51.012;-1.648;2022-11-11T13:37:05;18.20;;;3.00;;
53479;SDS011;56133;51.012;-1.648;2022-11-11T13:39:36;14.93;;;2.88;;
53479;SDS011;56133;51.012;-1.648;2022-11-11T13:42:05;22.38;;;2.85;;
53479;SDS011;56133;51.012;-1.648;2022-11-11T13:44:38;28.05;;;3.40;;
53479;SDS011;56133;51.012;-1.648;2022-11-11T13:47:18;14.10;;;2.85;;
53479;SDS011;56133;51.012;-1.648;2022-11-11T13:49:55;19.58;;;3.10;;
53479;SDS011;56133;51.012;-1.648;2022-11-11T13:52:30;13.95;;;3.08;;
53479;SDS011;56133;51.012;-1.648;2022-11-11T13:55:04;41.75;;;4.63;;
53479;SDS011;56133;51.012;-1.648;2022-11-11T13:57:33;43.65;;;4.35;;
53479;SDS011;56133;51.012;-1.648;2022-11-11T14:02:44;15.18;;;3.10;;
53479;SDS011;56133;51.012;-1.648;2022-11-11T14:05:17;11.73;;;2.50;;
53479;SDS011;56133;51.012;-1.648;2022-11-11T14:07:47;19.15;;;3.28;;
53479;SDS011;56133;51.012;-1.648;2022-11-11T14:12:46;27.85;;;4.05;;
53479;SDS011;56133;51.012;-1.648;2022-11-11T14:18:09;43.78;;;4.03;;
53479;SDS011;56133;51.012;-1.648;2022-11-11T14:20:46;12.15;;;2.40;;
53479;SDS011;56133;51.012;-1.648;2022-11-11T14:33:51;12.07;;;2.30;;
53479;SDS011;56133;51.012;-1.648;2022-11-11T14:36:29;12.93;;;2.67;;
53479;SDS011;56133;51.012;-1.648;2022-11-11T14:44:56;19.13;;;3.13;;
53479;SDS011;56133;51.012;-1.648;2022-11-11T14:57:34;27.52;;;4.07;;
53479;SDS011;56133;51.012;-1.648;2022-11-11T15:02:41;19.42;;;3.95;;
53479;SDS011;56133;51.012;-1.648;2022-11-11T15:11:26;13.10;;;2.67;;
53479;SDS011;56133;51.012;-1.648;2022-11-11T15:14:16;18.75;;;3.38;;
53479;SDS011;56133;51.012;-1.648;2022-11-11T15:24:43;13.40;;;2.90;;
53479;SDS011;56133;51.012;-1.648;2022-11-11T15:30:10;30.75;;;3.92;;
53479;SDS011;56133;51.012;-1.648;2022-11-11T15:38:25;17.92;;;3.10;;
53479;SDS011;56133;51.012;-1.648;2022-11-11T15:40:55;21.75;;;3.28;;
53479;SDS011;56133;51.012;-1.648;2022-11-11T15:43:24;19.90;;;2.97;;
53479;SDS011;56133;51.012;-1.648;2022-11-11T15:45:53;14.48;;;3.22;;
53479;SDS011;56133;51.012;-1.648;2022-11-11T15:48:22;21.20;;;3.58;;
53479;SDS011;56133;51.012;-1.648;2022-11-11T15:50:51;11.75;;;2.65;;
53479;SDS011;56133;51.012;-1.648;2022-11-11T15:53:24;34.05;;;3.80;;
53479;SDS011;56133;51.012;-1.648;2022-11-11T15:55:56;34.03;;;4.28;;
53479;SDS011;56133;51.012;-1.648;2022-11-11T15:58:30;42.33;;;4.57;;
53479;SDS011;56133;51.012;-1.648;2022-11-11T16:00:57;14.82;;;3.00;;
53479;SDS011;56133;51.012;-1.648;2022-11-11T16:03:39;23.27;;;3.83;;
53479;SDS011;56133;51.012;-1.648;2022-11-11T16:06:09;19.17;;;3.25;;
53479;SDS011;56133;51.012;-1.648;2022-11-11T16:08:41;20.33;;;3.47;;
53479;SDS011;56133;51.012;-1.648;2022-11-11T16:11:09;20.05;;;3.80;;
53479;SDS011;56133;51.012;-1.648;2022-11-11T16:13:45;29.25;;;4.10;;
53479;SDS011;56133;51.012;-1.648;2022-11-11T16:16:29;17.98;;;3.78;;
53479;SDS011;56133;51.012;-1.648;2022-11-11T16:24:40;14.80;;;3.35;;
53479;SDS011;56133;51.012;-1.648;2022-11-11T16:27:11;20.58;;;3.65;;
53479;SDS011;56133;51.012;-1.648;2022-11-11T16:29:40;19.85;;;3.53;;
53479;SDS011;56133;51.012;-1.648;2022-11-11T16:35:01;16.48;;;2.88;;
53479;SDS011;56133;51.012;-1.648;2022-11-11T16:37:59;36.65;;;3.95;;
53479;SDS011;56133;51.012;-1.648;2022-11-11T16:45:46;30.02;;;4.03;;
53479;SDS011;56133;51.012;-1.648;2022-11-11T16:51:01;16.52;;;3.20;;
53479;SDS011;56133;51.012;-1.648;2022-11-11T16:53:32;19.42;;;3.78;;
53479;SDS011;56133;51.012;-1.648;2022-11-11T16:56:03;25.42;;;3.58;;
53479;SDS011;56133;51.012;-1.648;2022-11-11T16:58:31;26.30;;;4.82;;
53479;SDS011;56133;51.012;-1.648;2022-11-11T17:01:04;28.40;;;7.05;;
53479;SDS011;56133;51.012;-1.648;2022-11-11T17:03:30;27.90;;;3.97;;
53479;SDS011;56133;51.012;-1.648;2022-11-11T17:08:39;14.13;;;3.33;;
53479;SDS011;56133;51.012;-1.648;2022-11-11T17:11:08;20.95;;;5.60;;
53479;SDS011;56133;51.012;-1.648;2022-11-11T17:13:35;21.77;;;3.38;;
53479;SDS011;56133;51.012;-1.648;2022-11-11T17:16:02;31.13;;;3.88;;
53479;SDS011;56133;51.012;-1.648;2022-11-11T17:18:35;18.63;;;3.97;;
53479;SDS011;56133;51.012;-1.648;2022-11-11T17:21:03;15.82;;;3.17;;
53479;SDS011;56133;51.012;-1.648;2022-11-11T17:23:29;40.20;;;5.30;;
53479;SDS011;56133;51.012;-1.648;2022-11-11T17:25:55;25.23;;;4.15;;
53479;SDS011;56133;51.012;-1.648;2022-11-11T17:28:22;33.15;;;5.00;;
53479;SDS011;56133;51.012;-1.648;2022-11-11T17:30:47;15.75;;;3.88;;
53479;SDS011;56133;51.012;-1.648;2022-11-11T17:33:13;31.15;;;6.65;;
53479;SDS011;56133;51.012;-1.648;2022-11-11T17:35:48;21.88;;;8.30;;
53479;SDS011;56133;51.012;-1.648;2022-11-11T17:38:16;30.15;;;8.13;;
53479;SDS011;56133;51.012;-1.648;2022-11-11T17:40:43;20.25;;;4.75;;
53479;SDS011;56133;51.012;-1.648;2022-11-11T17:43:12;28.58;;;4.70;;
53479;SDS011;56133;51.012;-1.648;2022-11-11T17:45:38;18.83;;;4.32;;
53479;SDS011;56133;51.012;-1.648;2022-11-11T17:48:05;12.45;;;2.90;;
53479;SDS011;56133;51.012;-1.648;2022-11-11T17:50:31;19.33;;;4.00;;
53479;SDS011;56133;51.012;-1.648;2022-11-11T17:52:56;13.40;;;2.83;;